sensor_id;sensor_type;location;lat;lon;timestamp;P1;durP1;ratioP1;P2;durP2;ratioP2
18280;SDS011;9266;51.132;17.062;2023-07-22T00:00:59;8.03;;;5.13;;
18280;SDS011;9266;51.132;17.062;2023-07-22T00:03:26;5.43;;;4.93;;
18280;SDS011;9266;51.132;17.062;2023-07-22T00:06:02;5.57;;;5.07;;
18280;SDS011;9266;51.132;17.062;2023-07-22T00:08:30;6.50;;;5.10;;
18280;SDS011;9266;51.132;17.062;2023-07-22T00:10:57;5.90;;;5.30;;
18280;SDS011;9266;51.132;17.062;2023-07-22T00:13:24;5.47;;;4.93;;
18280;SDS011;9266;51.132;17.062;2023-07-22T00:15:53;6.77;;;5.00;;
18280;SDS011;9266;51.132;17.062;2023-07-22T00:18:20;6.10;;;5.27;;
18280;SDS011;9266;51.132;17.062;2023-07-22T00:20:49;6.97;;;5.43;;
18280;SDS011;9266;51.132;17.062;2023-07-22T00:23:16;6.07;;;5.23;;
18280;SDS011;9266;51.132;17.062;2023-07-22T00:25:44;5.37;;;4.80;;
18280;SDS011;9266;51.132;17.062;2023-07-22T00:28:12;6.67;;;5.20;;
18280;SDS011;9266;51.132;17.062;2023-07-22T00:30:39;5.57;;;4.93;;
18280;SDS011;9266;51.132;17.062;2023-07-22T00:33:07;5.37;;;4.87;;
18280;SDS011;9266;51.132;17.062;2023-07-22T00:35:34;6.40;;;5.13;;
18280;SDS011;9266;51.132;17.062;2023-07-22T00:38:01;5.40;;;4.90;;
18280;SDS011;9266;51.132;17.062;2023-07-22T00:40:29;8.37;;;5.23;;
18280;SDS011;9266;51.132;17.062;2023-07-22T00:42:57;5.77;;;5.00;;
18280;SDS011;9266;51.132;17.062;2023-07-22T00:45:24;5.17;;;4.60;;
18280;SDS011;9266;51.132;17.062;2023-07-22T00:47:51;6.00;;;4.93;;
18280;SDS011;9266;51.132;17.062;2023-07-22T00:50:20;7.33;;;4.97;;
18280;SDS011;9266;51.132;17.062;2023-07-22T00:52:49;5.20;;;4.70;;
18280;SDS011;9266;51.132;17.062;2023-07-22T00:55:17;5.07;;;4.67;;
18280;SDS011;9266;51.132;17.062;2023-07-22T00:57:44;6.70;;;5.27;;
18280;SDS011;9266;51.132;17.062;2023-07-22T01:00:12;5.70;;;5.20;;
18280;SDS011;9266;51.132;17.062;2023-07-22T01:02:41;6.57;;;5.30;;
18280;SDS011;9266;51.132;17.062;2023-07-22T01:05:09;5.73;;;5.13;;
18280;SDS011;9266;51.132;17.062;2023-07-22T01:07:38;6.00;;;5.40;;
18280;SDS011;9266;51.132;17.062;2023-07-22T01:10:06;5.67;;;5.17;;
18280;SDS011;9266;51.132;17.062;2023-07-22T01:12:34;6.00;;;5.50;;
18280;SDS011;9266;51.132;17.062;2023-07-22T01:15:01;6.00;;;5.40;;
18280;SDS011;9266;51.132;17.062;2023-07-22T01:17:32;8.10;;;5.40;;
18280;SDS011;9266;51.132;17.062;2023-07-22T01:20:00;6.10;;;5.50;;
18280;SDS011;9266;51.132;17.062;2023-07-22T01:22:27;6.93;;;5.50;;
18280;SDS011;9266;51.132;17.062;2023-07-22T01:24:57;5.93;;;5.33;;
18280;SDS011;9266;51.132;17.062;2023-07-22T01:27:26;6.43;;;5.83;;
18280;SDS011;9266;51.132;17.062;2023-07-22T01:29:53;7.10;;;6.40;;
18280;SDS011;9266;51.132;17.062;2023-07-22T01:32:19;6.90;;;6.20;;
18280;SDS011;9266;51.132;17.062;2023-07-22T01:34:46;7.33;;;6.37;;
18280;SDS011;9266;51.132;17.062;2023-07-22T01:37:13;6.83;;;6.13;;
18280;SDS011;9266;51.132;17.062;2023-07-22T01:39:40;6.80;;;5.93;;
18280;SDS011;9266;51.132;17.062;2023-07-22T01:42:09;7.40;;;6.70;;
18280;SDS011;9266;51.132;17.062;2023-07-22T01:44:36;7.53;;;6.73;;
18280;SDS011;9266;51.132;17.062;2023-07-22T01:47:03;7.53;;;6.27;;
18280;SDS011;9266;51.132;17.062;2023-07-22T01:49:31;7.63;;;6.27;;
18280;SDS011;9266;51.132;17.062;2023-07-22T01:51:59;7.47;;;6.50;;
18280;SDS011;9266;51.132;17.062;2023-07-22T01:54:26;7.13;;;6.50;;
18280;SDS011;9266;51.132;17.062;2023-07-22T01:56:53;8.47;;;7.50;;
18280;SDS011;9266;51.132;17.062;2023-07-22T01:59:21;8.60;;;7.70;;
18280;SDS011;9266;51.132;17.062;2023-07-22T02:01:48;8.73;;;7.50;;
18280;SDS011;9266;51.132;17.062;2023-07-22T02:04:16;9.20;;;8.30;;
18280;SDS011;9266;51.132;17.062;2023-07-22T02:06:43;9.07;;;8.17;;
18280;SDS011;9266;51.132;17.062;2023-07-22T02:09:10;9.00;;;8.10;;
18280;SDS011;9266;51.132;17.062;2023-07-22T02:11:38;9.27;;;8.00;;
18280;SDS011;9266;51.132;17.062;2023-07-22T02:14:05;8.87;;;7.60;;
18280;SDS011;9266;51.132;17.062;2023-07-22T02:16:34;9.03;;;8.23;;
18280;SDS011;9266;51.132;17.062;2023-07-22T02:19:02;9.73;;;8.57;;
18280;SDS011;9266;51.132;17.062;2023-07-22T02:21:29;9.47;;;8.47;;
18280;SDS011;9266;51.132;17.062;2023-07-22T02:23:56;9.43;;;8.53;;
18280;SDS011;9266;51.132;17.062;2023-07-22T02:26:23;9.40;;;8.40;;
18280;SDS011;9266;51.132;17.062;2023-07-22T02:28:50;10.23;;;9.17;;
18280;SDS011;9266;51.132;17.062;2023-07-22T02:31:17;10.40;;;9.30;;
18280;SDS011;9266;51.132;17.062;2023-07-22T02:33:45;10.40;;;9.40;;
18280;SDS011;9266;51.132;17.062;2023-07-22T02:36:13;10.63;;;9.33;;
18280;SDS011;9266;51.132;17.062;2023-07-22T02:38:40;10.20;;;9.10;;
18280;SDS011;9266;51.132;17.062;2023-07-22T02:41:07;10.40;;;9.37;;
18280;SDS011;9266;51.132;17.062;2023-07-22T02:43:34;10.30;;;8.90;;
18280;SDS011;9266;51.132;17.062;2023-07-22T02:46:01;10.37;;;9.33;;
18280;SDS011;9266;51.132;17.062;2023-07-22T02:48:29;10.73;;;8.87;;
18280;SDS011;9266;51.132;17.062;2023-07-22T02:51:02;9.77;;;8.73;;
18280;SDS011;9266;51.132;17.062;2023-07-22T02:53:30;9.80;;;8.73;;
18280;SDS011;9266;51.132;17.062;2023-07-22T02:55:57;8.80;;;7.90;;
18280;SDS011;9266;51.132;17.062;2023-07-22T02:58:25;10.13;;;8.20;;
18280;SDS011;9266;51.132;17.062;2023-07-22T03:00:52;9.30;;;7.53;;
18280;SDS011;9266;51.132;17.062;2023-07-22T03:03:18;8.70;;;7.70;;
18280;SDS011;9266;51.132;17.062;2023-07-22T03:05:45;8.40;;;7.60;;
18280;SDS011;9266;51.132;17.062;2023-07-22T03:08:14;8.87;;;7.97;;
18280;SDS011;9266;51.132;17.062;2023-07-22T03:10:43;8.87;;;7.97;;
18280;SDS011;9266;51.132;17.062;2023-07-22T03:13:14;8.30;;;7.50;;
18280;SDS011;9266;51.132;17.062;2023-07-22T03:15:42;10.03;;;7.37;;
18280;SDS011;9266;51.132;17.062;2023-07-22T03:18:09;7.90;;;7.10;;
18280;SDS011;9266;51.132;17.062;2023-07-22T03:20:36;8.70;;;7.83;;
18280;SDS011;9266;51.132;17.062;2023-07-22T03:23:04;8.10;;;7.07;;
18280;SDS011;9266;51.132;17.062;2023-07-22T03:25:32;8.37;;;6.70;;
18280;SDS011;9266;51.132;17.062;2023-07-22T03:28:00;8.00;;;7.07;;
18280;SDS011;9266;51.132;17.062;2023-07-22T03:30:30;7.80;;;6.57;;
18280;SDS011;9266;51.132;17.062;2023-07-22T03:32:57;7.53;;;6.73;;
18280;SDS011;9266;51.132;17.062;2023-07-22T03:35:24;7.30;;;6.60;;
18280;SDS011;9266;51.132;17.062;2023-07-22T03:37:51;10.83;;;6.77;;
18280;SDS011;9266;51.132;17.062;2023-07-22T03:40:18;7.37;;;6.70;;
18280;SDS011;9266;51.132;17.062;2023-07-22T03:42:47;7.97;;;7.17;;
18280;SDS011;9266;51.132;17.062;2023-07-22T03:45:14;7.63;;;6.67;;
18280;SDS011;9266;51.132;17.062;2023-07-22T03:47:43;7.63;;;6.73;;
18280;SDS011;9266;51.132;17.062;2023-07-22T03:50:11;7.60;;;6.80;;
18280;SDS011;9266;51.132;17.062;2023-07-22T03:52:38;7.60;;;6.90;;
18280;SDS011;9266;51.132;17.062;2023-07-22T03:55:05;7.30;;;6.60;;
18280;SDS011;9266;51.132;17.062;2023-07-22T03:57:33;8.33;;;6.60;;
18280;SDS011;9266;51.132;17.062;2023-07-22T04:00:02;7.43;;;6.57;;
18280;SDS011;9266;51.132;17.062;2023-07-22T04:02:30;10.37;;;6.90;;
18280;SDS011;9266;51.132;17.062;2023-07-22T04:04:57;6.93;;;6.23;;
18280;SDS011;9266;51.132;17.062;2023-07-22T04:07:24;10.00;;;6.83;;
18280;SDS011;9266;51.132;17.062;2023-07-22T04:09:51;9.50;;;7.33;;
18280;SDS011;9266;51.132;17.062;2023-07-22T04:12:18;7.40;;;6.40;;
18280;SDS011;9266;51.132;17.062;2023-07-22T04:14:45;8.70;;;5.90;;
18280;SDS011;9266;51.132;17.062;2023-07-22T04:17:13;7.00;;;6.30;;
18280;SDS011;9266;51.132;17.062;2023-07-22T04:19:40;6.13;;;5.53;;
18280;SDS011;9266;51.132;17.062;2023-07-22T04:22:08;9.17;;;5.13;;
18280;SDS011;9266;51.132;17.062;2023-07-22T04:24:35;7.67;;;5.10;;
18280;SDS011;9266;51.132;17.062;2023-07-22T04:27:02;6.13;;;4.87;;
18280;SDS011;9266;51.132;17.062;2023-07-22T04:29:30;6.77;;;4.67;;
18280;SDS011;9266;51.132;17.062;2023-07-22T04:31:57;5.50;;;4.47;;
18280;SDS011;9266;51.132;17.062;2023-07-22T04:34:27;6.43;;;4.33;;
18280;SDS011;9266;51.132;17.062;2023-07-22T04:36:55;6.20;;;4.30;;
18280;SDS011;9266;51.132;17.062;2023-07-22T04:39:22;4.37;;;3.83;;
18280;SDS011;9266;51.132;17.062;2023-07-22T04:41:49;4.57;;;3.67;;
18280;SDS011;9266;51.132;17.062;2023-07-22T04:44:16;6.07;;;3.70;;
18280;SDS011;9266;51.132;17.062;2023-07-22T04:46:44;7.00;;;3.60;;
18280;SDS011;9266;51.132;17.062;2023-07-22T04:49:12;4.63;;;3.50;;
18280;SDS011;9266;51.132;17.062;2023-07-22T04:51:44;7.93;;;4.37;;
18280;SDS011;9266;51.132;17.062;2023-07-22T04:54:11;3.60;;;3.20;;
18280;SDS011;9266;51.132;17.062;2023-07-22T04:56:38;6.37;;;3.60;;
18280;SDS011;9266;51.132;17.062;2023-07-22T04:59:05;5.93;;;3.45;;
18280;SDS011;9266;51.132;17.062;2023-07-22T05:01:32;3.63;;;3.00;;
18280;SDS011;9266;51.132;17.062;2023-07-22T05:03:59;4.18;;;3.10;;
18280;SDS011;9266;51.132;17.062;2023-07-22T05:06:26;5.53;;;3.00;;
18280;SDS011;9266;51.132;17.062;2023-07-22T05:08:55;4.47;;;2.97;;
18280;SDS011;9266;51.132;17.062;2023-07-22T05:11:22;4.72;;;2.88;;
18280;SDS011;9266;51.132;17.062;2023-07-22T05:13:49;4.78;;;2.92;;
18280;SDS011;9266;51.132;17.062;2023-07-22T05:16:16;4.18;;;3.08;;
18280;SDS011;9266;51.132;17.062;2023-07-22T05:18:43;4.43;;;2.70;;
18280;SDS011;9266;51.132;17.062;2023-07-22T05:21:10;7.73;;;3.10;;
18280;SDS011;9266;51.132;17.062;2023-07-22T05:23:37;4.50;;;2.92;;
18280;SDS011;9266;51.132;17.062;2023-07-22T05:26:05;3.33;;;3.00;;
18280;SDS011;9266;51.132;17.062;2023-07-22T05:28:32;4.05;;;2.90;;
18280;SDS011;9266;51.132;17.062;2023-07-22T05:30:59;4.53;;;3.10;;
18280;SDS011;9266;51.132;17.062;2023-07-22T05:33:26;3.83;;;3.03;;
18280;SDS011;9266;51.132;17.062;2023-07-22T05:35:53;4.95;;;3.30;;
18280;SDS011;9266;51.132;17.062;2023-07-22T05:38:20;4.60;;;3.17;;
18280;SDS011;9266;51.132;17.062;2023-07-22T05:40:47;5.53;;;2.75;;
18280;SDS011;9266;51.132;17.062;2023-07-22T05:43:15;4.15;;;2.97;;
18280;SDS011;9266;51.132;17.062;2023-07-22T05:45:42;4.53;;;2.75;;
18280;SDS011;9266;51.132;17.062;2023-07-22T05:48:09;5.15;;;3.55;;
18280;SDS011;9266;51.132;17.062;2023-07-22T05:50:36;6.68;;;3.30;;
18280;SDS011;9266;51.132;17.062;2023-07-22T05:53:03;4.13;;;3.40;;
18280;SDS011;9266;51.132;17.062;2023-07-22T05:55:30;3.83;;;3.40;;
18280;SDS011;9266;51.132;17.062;2023-07-22T05:57:57;5.13;;;3.33;;
18280;SDS011;9266;51.132;17.062;2023-07-22T06:00:26;7.57;;;3.20;;
18280;SDS011;9266;51.132;17.062;2023-07-22T06:02:53;4.50;;;3.33;;
18280;SDS011;9266;51.132;17.062;2023-07-22T06:05:20;5.60;;;3.33;;
18280;SDS011;9266;51.132;17.062;2023-07-22T06:07:47;4.60;;;2.80;;
18280;SDS011;9266;51.132;17.062;2023-07-22T06:10:14;5.13;;;3.10;;
18280;SDS011;9266;51.132;17.062;2023-07-22T06:12:41;3.65;;;3.10;;
18280;SDS011;9266;51.132;17.062;2023-07-22T06:15:08;5.88;;;2.80;;
18280;SDS011;9266;51.132;17.062;2023-07-22T06:17:37;3.42;;;3.08;;
18280;SDS011;9266;51.132;17.062;2023-07-22T06:20:04;6.25;;;3.10;;
18280;SDS011;9266;51.132;17.062;2023-07-22T06:22:32;5.57;;;2.80;;
18280;SDS011;9266;51.132;17.062;2023-07-22T06:24:59;5.10;;;2.85;;
18280;SDS011;9266;51.132;17.062;2023-07-22T06:27:26;3.85;;;2.85;;
18280;SDS011;9266;51.132;17.062;2023-07-22T06:29:53;4.78;;;3.03;;
18280;SDS011;9266;51.132;17.062;2023-07-22T06:32:20;4.25;;;3.00;;
18280;SDS011;9266;51.132;17.062;2023-07-22T06:34:48;6.43;;;3.17;;
18280;SDS011;9266;51.132;17.062;2023-07-22T06:37:16;4.38;;;2.95;;
18280;SDS011;9266;51.132;17.062;2023-07-22T06:39:43;4.63;;;2.92;;
18280;SDS011;9266;51.132;17.062;2023-07-22T06:42:10;4.65;;;3.13;;
18280;SDS011;9266;51.132;17.062;2023-07-22T06:44:37;5.40;;;2.92;;
18280;SDS011;9266;51.132;17.062;2023-07-22T06:47:04;5.47;;;3.28;;
18280;SDS011;9266;51.132;17.062;2023-07-22T06:49:32;3.78;;;3.10;;
18280;SDS011;9266;51.132;17.062;2023-07-22T06:52:00;4.18;;;3.33;;
18280;SDS011;9266;51.132;17.062;2023-07-22T06:54:28;5.60;;;3.35;;
18280;SDS011;9266;51.132;17.062;2023-07-22T06:56:54;5.53;;;3.40;;
18280;SDS011;9266;51.132;17.062;2023-07-22T06:59:21;4.90;;;3.50;;
18280;SDS011;9266;51.132;17.062;2023-07-22T07:01:48;9.07;;;3.67;;
18280;SDS011;9266;51.132;17.062;2023-07-22T07:04:15;5.13;;;3.23;;
18280;SDS011;9266;51.132;17.062;2023-07-22T07:06:42;7.27;;;3.93;;
18280;SDS011;9266;51.132;17.062;2023-07-22T07:09:12;4.87;;;3.77;;
18280;SDS011;9266;51.132;17.062;2023-07-22T07:11:39;4.60;;;3.50;;
18280;SDS011;9266;51.132;17.062;2023-07-22T07:14:06;6.93;;;3.40;;
18280;SDS011;9266;51.132;17.062;2023-07-22T07:16:33;5.27;;;3.57;;
18280;SDS011;9266;51.132;17.062;2023-07-22T07:19:00;6.93;;;3.53;;
18280;SDS011;9266;51.132;17.062;2023-07-22T07:21:27;7.13;;;3.73;;
18280;SDS011;9266;51.132;17.062;2023-07-22T07:23:54;4.07;;;3.60;;
18280;SDS011;9266;51.132;17.062;2023-07-22T07:26:23;4.20;;;3.37;;
18280;SDS011;9266;51.132;17.062;2023-07-22T07:28:52;4.77;;;3.10;;
18280;SDS011;9266;51.132;17.062;2023-07-22T07:31:19;3.30;;;2.65;;
18280;SDS011;9266;51.132;17.062;2023-07-22T07:33:46;3.72;;;2.97;;
18280;SDS011;9266;51.132;17.062;2023-07-22T07:36:13;4.45;;;2.92;;
18280;SDS011;9266;51.132;17.062;2023-07-22T07:38:40;4.00;;;3.47;;
18280;SDS011;9266;51.132;17.062;2023-07-22T07:41:07;3.67;;;3.00;;
18280;SDS011;9266;51.132;17.062;2023-07-22T07:43:37;4.57;;;3.00;;
18280;SDS011;9266;51.132;17.062;2023-07-22T07:46:12;3.08;;;2.78;;
18280;SDS011;9266;51.132;17.062;2023-07-22T07:48:39;5.05;;;3.25;;
18280;SDS011;9266;51.132;17.062;2023-07-22T07:51:06;7.45;;;3.15;;
18280;SDS011;9266;51.132;17.062;2023-07-22T07:53:33;3.25;;;2.80;;
18280;SDS011;9266;51.132;17.062;2023-07-22T07:56:00;4.45;;;3.10;;
18280;SDS011;9266;51.132;17.062;2023-07-22T07:58:27;4.20;;;2.75;;
18280;SDS011;9266;51.132;17.062;2023-07-22T08:00:55;4.40;;;3.28;;
18280;SDS011;9266;51.132;17.062;2023-07-22T08:03:23;3.97;;;2.90;;
18280;SDS011;9266;51.132;17.062;2023-07-22T08:05:50;3.47;;;3.05;;
18280;SDS011;9266;51.132;17.062;2023-07-22T08:08:17;5.60;;;3.00;;
18280;SDS011;9266;51.132;17.062;2023-07-22T08:10:44;6.63;;;3.28;;
18280;SDS011;9266;51.132;17.062;2023-07-22T08:13:11;3.70;;;3.15;;
18280;SDS011;9266;51.132;17.062;2023-07-22T08:15:38;5.63;;;2.95;;
18280;SDS011;9266;51.132;17.062;2023-07-22T08:18:08;3.50;;;2.92;;
18280;SDS011;9266;51.132;17.062;2023-07-22T08:20:35;4.85;;;2.80;;
18280;SDS011;9266;51.132;17.062;2023-07-22T08:23:02;4.00;;;2.70;;
18280;SDS011;9266;51.132;17.062;2023-07-22T08:25:29;6.20;;;2.50;;
18280;SDS011;9266;51.132;17.062;2023-07-22T08:27:56;5.15;;;2.63;;
18280;SDS011;9266;51.132;17.062;2023-07-22T08:30:23;4.25;;;2.70;;
18280;SDS011;9266;51.132;17.062;2023-07-22T08:32:50;5.28;;;2.75;;
18280;SDS011;9266;51.132;17.062;2023-07-22T08:35:19;2.92;;;2.50;;
18280;SDS011;9266;51.132;17.062;2023-07-22T08:37:47;4.78;;;2.40;;
18280;SDS011;9266;51.132;17.062;2023-07-22T08:40:14;4.63;;;2.40;;
18280;SDS011;9266;51.132;17.062;2023-07-22T08:42:41;6.07;;;2.75;;
18280;SDS011;9266;51.132;17.062;2023-07-22T08:45:09;2.38;;;2.13;;
18280;SDS011;9266;51.132;17.062;2023-07-22T08:47:38;2.38;;;2.00;;
18280;SDS011;9266;51.132;17.062;2023-07-22T08:50:09;3.15;;;2.35;;
18280;SDS011;9266;51.132;17.062;2023-07-22T08:52:38;2.65;;;2.38;;
18280;SDS011;9266;51.132;17.062;2023-07-22T08:55:06;3.65;;;1.90;;
18280;SDS011;9266;51.132;17.062;2023-07-22T08:57:35;3.80;;;2.40;;
18280;SDS011;9266;51.132;17.062;2023-07-22T09:00:04;2.83;;;2.20;;
18280;SDS011;9266;51.132;17.062;2023-07-22T09:02:35;3.93;;;2.30;;
18280;SDS011;9266;51.132;17.062;2023-07-22T09:05:02;2.90;;;2.40;;
18280;SDS011;9266;51.132;17.062;2023-07-22T09:07:29;4.60;;;2.53;;
18280;SDS011;9266;51.132;17.062;2023-07-22T09:09:58;4.40;;;2.30;;
18280;SDS011;9266;51.132;17.062;2023-07-22T09:12:27;3.13;;;2.10;;
18280;SDS011;9266;51.132;17.062;2023-07-22T09:14:54;2.90;;;2.40;;
18280;SDS011;9266;51.132;17.062;2023-07-22T09:17:23;9.20;;;2.42;;
18280;SDS011;9266;51.132;17.062;2023-07-22T09:19:51;2.90;;;2.67;;
18280;SDS011;9266;51.132;17.062;2023-07-22T09:22:24;3.72;;;2.33;;
18280;SDS011;9266;51.132;17.062;2023-07-22T09:24:52;3.10;;;2.40;;
18280;SDS011;9266;51.132;17.062;2023-07-22T09:27:33;5.07;;;2.80;;
18280;SDS011;9266;51.132;17.062;2023-07-22T09:30:00;3.03;;;2.38;;
18280;SDS011;9266;51.132;17.062;2023-07-22T09:32:34;6.03;;;2.40;;
18280;SDS011;9266;51.132;17.062;2023-07-22T09:35:02;4.20;;;2.50;;
18280;SDS011;9266;51.132;17.062;2023-07-22T09:37:35;3.38;;;2.50;;
18280;SDS011;9266;51.132;17.062;2023-07-22T09:40:06;5.30;;;2.80;;
18280;SDS011;9266;51.132;17.062;2023-07-22T09:42:44;5.10;;;2.93;;
18280;SDS011;9266;51.132;17.062;2023-07-22T09:45:11;4.70;;;2.93;;
18280;SDS011;9266;51.132;17.062;2023-07-22T09:47:42;3.40;;;2.90;;
18280;SDS011;9266;51.132;17.062;2023-07-22T09:50:11;4.17;;;2.70;;
18280;SDS011;9266;51.132;17.062;2023-07-22T09:52:44;3.63;;;2.83;;
18280;SDS011;9266;51.132;17.062;2023-07-22T09:55:14;4.30;;;2.90;;
18280;SDS011;9266;51.132;17.062;2023-07-22T09:57:45;3.40;;;3.10;;
18280;SDS011;9266;51.132;17.062;2023-07-22T10:00:13;2.90;;;2.70;;
18280;SDS011;9266;51.132;17.062;2023-07-22T10:02:44;3.97;;;3.07;;
18280;SDS011;9266;51.132;17.062;2023-07-22T10:05:14;3.87;;;3.20;;
18280;SDS011;9266;51.132;17.062;2023-07-22T10:07:44;4.33;;;3.13;;
18280;SDS011;9266;51.132;17.062;2023-07-22T10:10:13;3.97;;;3.10;;
18280;SDS011;9266;51.132;17.062;2023-07-22T10:12:43;4.90;;;3.10;;
18280;SDS011;9266;51.132;17.062;2023-07-22T10:15:12;6.43;;;3.10;;
18280;SDS011;9266;51.132;17.062;2023-07-22T10:17:40;4.60;;;3.17;;
18280;SDS011;9266;51.132;17.062;2023-07-22T10:20:08;7.57;;;3.53;;
18280;SDS011;9266;51.132;17.062;2023-07-22T10:22:40;4.90;;;3.10;;
18280;SDS011;9266;51.132;17.062;2023-07-22T10:25:09;5.93;;;3.00;;
18280;SDS011;9266;51.132;17.062;2023-07-22T10:27:37;4.30;;;3.27;;
18280;SDS011;9266;51.132;17.062;2023-07-22T10:30:08;5.37;;;3.10;;
18280;SDS011;9266;51.132;17.062;2023-07-22T10:32:37;3.70;;;3.27;;
18280;SDS011;9266;51.132;17.062;2023-07-22T10:35:07;3.47;;;3.00;;
18280;SDS011;9266;51.132;17.062;2023-07-22T10:37:36;3.50;;;2.90;;
18280;SDS011;9266;51.132;17.062;2023-07-22T10:40:16;4.63;;;2.90;;
18280;SDS011;9266;51.132;17.062;2023-07-22T10:42:51;4.13;;;3.00;;
18280;SDS011;9266;51.132;17.062;2023-07-22T10:45:25;8.83;;;7.80;;
18280;SDS011;9266;51.132;17.062;2023-07-22T10:48:00;6.27;;;3.47;;
18280;SDS011;9266;51.132;17.062;2023-07-22T10:50:38;4.17;;;2.67;;
18280;SDS011;9266;51.132;17.062;2023-07-22T10:53:09;3.20;;;2.90;;
18280;SDS011;9266;51.132;17.062;2023-07-22T10:58:33;3.50;;;2.73;;
18280;SDS011;9266;51.132;17.062;2023-07-22T11:01:23;4.87;;;3.57;;
18280;SDS011;9266;51.132;17.062;2023-07-22T11:04:10;5.53;;;3.38;;
18280;SDS011;9266;51.132;17.062;2023-07-22T11:06:38;6.10;;;3.10;;
18280;SDS011;9266;51.132;17.062;2023-07-22T11:09:06;4.87;;;3.00;;
18280;SDS011;9266;51.132;17.062;2023-07-22T11:11:54;4.93;;;3.00;;
18280;SDS011;9266;51.132;17.062;2023-07-22T11:14:22;3.67;;;2.83;;
18280;SDS011;9266;51.132;17.062;2023-07-22T11:16:52;3.67;;;2.97;;
18280;SDS011;9266;51.132;17.062;2023-07-22T11:19:20;3.13;;;2.80;;
18280;SDS011;9266;51.132;17.062;2023-07-22T11:21:49;3.80;;;2.80;;
18280;SDS011;9266;51.132;17.062;2023-07-22T11:24:16;3.87;;;3.00;;
18280;SDS011;9266;51.132;17.062;2023-07-22T11:26:44;3.33;;;2.67;;
18280;SDS011;9266;51.132;17.062;2023-07-22T11:29:12;4.40;;;3.10;;
18280;SDS011;9266;51.132;17.062;2023-07-22T11:31:40;3.75;;;2.80;;
18280;SDS011;9266;51.132;17.062;2023-07-22T11:34:11;2.88;;;2.60;;
18280;SDS011;9266;51.132;17.062;2023-07-22T11:36:38;2.93;;;2.63;;
18280;SDS011;9266;51.132;17.062;2023-07-22T11:39:06;3.60;;;2.83;;
18280;SDS011;9266;51.132;17.062;2023-07-22T11:41:34;5.05;;;2.83;;
18280;SDS011;9266;51.132;17.062;2023-07-22T11:44:02;4.83;;;2.70;;
18280;SDS011;9266;51.132;17.062;2023-07-22T11:46:33;4.90;;;2.87;;
18280;SDS011;9266;51.132;17.062;2023-07-22T11:49:01;4.20;;;3.07;;
18280;SDS011;9266;51.132;17.062;2023-07-22T11:51:30;3.13;;;2.83;;
18280;SDS011;9266;51.132;17.062;2023-07-22T11:53:58;3.20;;;2.80;;
18280;SDS011;9266;51.132;17.062;2023-07-22T11:56:26;3.50;;;3.20;;
18280;SDS011;9266;51.132;17.062;2023-07-22T11:58:54;2.97;;;2.70;;
18280;SDS011;9266;51.132;17.062;2023-07-22T12:01:22;3.47;;;2.93;;
18280;SDS011;9266;51.132;17.062;2023-07-22T12:03:55;4.38;;;3.10;;
18280;SDS011;9266;51.132;17.062;2023-07-22T12:06:24;3.53;;;2.80;;
18280;SDS011;9266;51.132;17.062;2023-07-22T12:08:53;5.03;;;2.80;;
18280;SDS011;9266;51.132;17.062;2023-07-22T12:11:21;4.60;;;3.00;;
18280;SDS011;9266;51.132;17.062;2023-07-22T12:13:49;5.17;;;2.80;;
18280;SDS011;9266;51.132;17.062;2023-07-22T12:16:30;4.25;;;2.70;;
18280;SDS011;9266;51.132;17.062;2023-07-22T12:18:57;3.53;;;3.22;;
18280;SDS011;9266;51.132;17.062;2023-07-22T12:21:24;4.03;;;2.50;;
18280;SDS011;9266;51.132;17.062;2023-07-22T12:23:52;4.23;;;2.87;;
18280;SDS011;9266;51.132;17.062;2023-07-22T12:26:21;3.42;;;2.47;;
18280;SDS011;9266;51.132;17.062;2023-07-22T12:28:48;3.70;;;2.75;;
18280;SDS011;9266;51.132;17.062;2023-07-22T12:31:15;4.35;;;2.80;;
18280;SDS011;9266;51.132;17.062;2023-07-22T12:33:42;3.58;;;3.28;;
18280;SDS011;9266;51.132;17.062;2023-07-22T12:36:09;4.40;;;2.92;;
18280;SDS011;9266;51.132;17.062;2023-07-22T12:38:36;4.43;;;2.40;;
18280;SDS011;9266;51.132;17.062;2023-07-22T12:41:04;3.60;;;2.70;;
18280;SDS011;9266;51.132;17.062;2023-07-22T12:43:31;5.55;;;3.35;;
18280;SDS011;9266;51.132;17.062;2023-07-22T12:45:58;2.90;;;2.53;;
18280;SDS011;9266;51.132;17.062;2023-07-22T12:48:25;3.97;;;3.23;;
18280;SDS011;9266;51.132;17.062;2023-07-22T12:50:52;3.33;;;2.60;;
18280;SDS011;9266;51.132;17.062;2023-07-22T12:53:19;4.53;;;2.83;;
18280;SDS011;9266;51.132;17.062;2023-07-22T12:55:46;5.93;;;2.90;;
18280;SDS011;9266;51.132;17.062;2023-07-22T12:58:14;5.13;;;2.70;;
18280;SDS011;9266;51.132;17.062;2023-07-22T13:00:41;4.53;;;2.55;;
18280;SDS011;9266;51.132;17.062;2023-07-22T13:03:08;4.50;;;2.70;;
18280;SDS011;9266;51.132;17.062;2023-07-22T13:05:35;3.33;;;2.53;;
18280;SDS011;9266;51.132;17.062;2023-07-22T13:08:02;2.70;;;2.45;;
18280;SDS011;9266;51.132;17.062;2023-07-22T13:10:30;4.78;;;2.42;;
18280;SDS011;9266;51.132;17.062;2023-07-22T13:12:59;3.10;;;2.65;;
18280;SDS011;9266;51.132;17.062;2023-07-22T13:15:27;3.80;;;2.30;;
18280;SDS011;9266;51.132;17.062;2023-07-22T13:17:54;3.17;;;2.70;;
18280;SDS011;9266;51.132;17.062;2023-07-22T13:20:21;2.97;;;2.60;;
18280;SDS011;9266;51.132;17.062;2023-07-22T13:22:48;3.20;;;2.67;;
18280;SDS011;9266;51.132;17.062;2023-07-22T13:25:16;4.17;;;2.57;;
18280;SDS011;9266;51.132;17.062;2023-07-22T13:27:43;4.00;;;2.53;;
18280;SDS011;9266;51.132;17.062;2023-07-22T13:30:10;3.30;;;2.57;;
18280;SDS011;9266;51.132;17.062;2023-07-22T13:32:38;3.90;;;2.57;;
18280;SDS011;9266;51.132;17.062;2023-07-22T13:35:05;3.00;;;2.70;;
18280;SDS011;9266;51.132;17.062;2023-07-22T13:37:33;3.23;;;2.57;;
18280;SDS011;9266;51.132;17.062;2023-07-22T13:40:01;5.60;;;2.63;;
18280;SDS011;9266;51.132;17.062;2023-07-22T13:42:34;6.05;;;2.60;;
18280;SDS011;9266;51.132;17.062;2023-07-22T13:45:01;3.10;;;2.80;;
18280;SDS011;9266;51.132;17.062;2023-07-22T13:47:29;3.40;;;2.90;;
18280;SDS011;9266;51.132;17.062;2023-07-22T13:49:57;5.55;;;2.70;;
18280;SDS011;9266;51.132;17.062;2023-07-22T13:52:24;2.83;;;2.53;;
18280;SDS011;9266;51.132;17.062;2023-07-22T13:54:51;3.60;;;3.17;;
18280;SDS011;9266;51.132;17.062;2023-07-22T13:57:18;3.70;;;2.77;;
18280;SDS011;9266;51.132;17.062;2023-07-22T13:59:45;3.10;;;2.70;;
18280;SDS011;9266;51.132;17.062;2023-07-22T14:02:12;3.75;;;2.92;;
18280;SDS011;9266;51.132;17.062;2023-07-22T14:04:39;3.63;;;2.67;;
18280;SDS011;9266;51.132;17.062;2023-07-22T14:07:07;3.78;;;2.88;;
18280;SDS011;9266;51.132;17.062;2023-07-22T14:09:34;3.10;;;2.70;;
18280;SDS011;9266;51.132;17.062;2023-07-22T14:12:01;7.00;;;2.83;;
18280;SDS011;9266;51.132;17.062;2023-07-22T14:14:29;5.15;;;3.58;;
18280;SDS011;9266;51.132;17.062;2023-07-22T14:16:56;3.45;;;2.88;;
18280;SDS011;9266;51.132;17.062;2023-07-22T14:19:23;5.25;;;2.75;;
18280;SDS011;9266;51.132;17.062;2023-07-22T14:21:50;3.67;;;2.83;;
18280;SDS011;9266;51.132;17.062;2023-07-22T14:24:19;3.10;;;2.78;;
18280;SDS011;9266;51.132;17.062;2023-07-22T14:26:46;5.13;;;2.85;;
18280;SDS011;9266;51.132;17.062;2023-07-22T14:29:13;4.47;;;3.17;;
18280;SDS011;9266;51.132;17.062;2023-07-22T14:31:41;4.45;;;2.70;;
18280;SDS011;9266;51.132;17.062;2023-07-22T14:34:09;4.93;;;3.95;;
18280;SDS011;9266;51.132;17.062;2023-07-22T14:36:35;10.90;;;3.53;;
18280;SDS011;9266;51.132;17.062;2023-07-22T14:39:02;3.63;;;2.95;;
18280;SDS011;9266;51.132;17.062;2023-07-22T14:41:30;5.50;;;2.95;;
18280;SDS011;9266;51.132;17.062;2023-07-22T14:43:57;3.47;;;2.80;;
18280;SDS011;9266;51.132;17.062;2023-07-22T14:46:24;4.95;;;2.83;;
18280;SDS011;9266;51.132;17.062;2023-07-22T14:48:51;4.95;;;3.20;;
18280;SDS011;9266;51.132;17.062;2023-07-22T14:51:18;4.37;;;3.00;;
18280;SDS011;9266;51.132;17.062;2023-07-22T14:53:45;4.75;;;2.88;;
18280;SDS011;9266;51.132;17.062;2023-07-22T14:56:12;3.20;;;2.70;;